createdAt,value
2023-02-03T00:00:34.791Z,92.05
2023-02-03T00:01:35.089Z,92.05
2023-02-03T00:02:35.434Z,91.85
2023-02-03T00:03:34.718Z,91.85
2023-02-03T00:04:34.108Z,91.74
2023-02-03T00:05:34.492Z,91.64
2023-02-03T00:06:33.760Z,91.64
2023-02-03T00:07:34.102Z,91.74
2023-02-03T00:08:35.398Z,91.85
2023-02-03T00:09:34.697Z,91.95
2023-02-03T00:10:35.027Z,91.95
2023-02-03T00:11:34.552Z,91.85
2023-02-03T00:12:34.623Z,91.95
2023-02-03T00:13:34.943Z,91.74
2023-02-03T00:14:34.318Z,91.64
2023-02-03T00:15:34.576Z,91.74
2023-02-03T00:16:34.974Z,91.74
2023-02-03T00:17:34.308Z,91.95
2023-02-03T00:18:34.540Z,91.85
2023-02-03T00:19:34.871Z,91.95
2023-02-03T00:20:35.226Z,91.85
2023-02-03T00:21:34.497Z,91.85
2023-02-03T00:22:34.809Z,91.95
2023-02-03T00:23:34.263Z,92.05
2023-02-03T00:24:33.466Z,92.25
2023-02-03T00:25:33.803Z,92.67
2023-02-03T00:26:34.110Z,93.08
2023-02-03T00:27:34.410Z,93.39
2023-02-03T00:28:34.754Z,93.70
2023-02-03T00:29:34.666Z,93.80
2023-02-03T00:30:34.344Z,93.90
2023-02-03T00:31:34.863Z,94.21
2023-02-03T00:32:35.048Z,94.42
2023-02-03T00:33:34.265Z,94.46
2023-02-03T00:34:34.599Z,94.56
2023-02-03T00:35:34.986Z,94.26
2023-02-03T00:36:34.259Z,94.36
2023-02-03T00:37:34.595Z,94.36
2023-02-03T00:38:34.952Z,93.84
2023-02-03T00:39:33.273Z,93.84
2023-02-03T00:40:33.604Z,93.54
2023-02-03T00:41:34.915Z,93.49
2023-02-03T00:42:34.176Z,93.08
2023-02-03T00:43:34.537Z,92.77
2023-02-03T00:44:34.881Z,92.67
2023-02-03T00:45:34.217Z,92.57
2023-02-03T00:46:33.593Z,92.67
2023-02-03T00:47:34.021Z,92.57
2023-02-03T00:48:34.192Z,92.77
2023-02-03T00:49:34.547Z,92.57
2023-02-03T00:50:34.904Z,92.46
2023-02-03T00:51:33.236Z,92.16
2023-02-03T00:52:34.536Z,92.05
2023-02-03T00:53:34.048Z,92.16
2023-02-03T00:54:33.847Z,92.16
2023-02-03T00:55:33.587Z,92.05
2023-02-03T00:56:33.943Z,91.85
2023-02-03T00:57:33.243Z,91.85
2023-02-03T00:58:33.557Z,91.85
2023-02-03T00:59:33.950Z,91.74
2023-02-03T01:00:34.159Z,91.74
2023-02-03T01:01:34.498Z,91.44
2023-02-03T01:02:34.847Z,91.53
2023-02-03T01:03:33.127Z,91.53
2023-02-03T01:04:34.451Z,91.02
2023-02-03T01:05:33.846Z,91.23
2023-02-03T01:06:34.071Z,91.19
2023-02-03T01:07:32.907Z,91.13
2023-02-03T01:08:34.177Z,90.88
2023-02-03T01:09:36.603Z,90.78
2023-02-03T01:10:32.896Z,90.88
2023-02-03T01:11:33.273Z,90.78
2023-02-03T01:12:33.581Z,90.78
2023-02-03T01:13:33.841Z,90.92
2023-02-03T01:14:34.156Z,90.67
2023-02-03T01:15:33.551Z,90.67
2023-02-03T01:16:33.882Z,90.57
2023-02-03T01:17:34.153Z,90.36
2023-02-03T01:18:34.466Z,90.47
2023-02-03T01:19:33.737Z,90.36
2023-02-03T01:20:34.083Z,90.36
2023-02-03T01:21:34.498Z,90.16
2023-02-03T01:22:33.669Z,90.16
2023-02-03T01:23:34.040Z,90.26
2023-02-03T01:24:34.322Z,90.36
2023-02-03T01:25:33.540Z,90.26
2023-02-03T01:26:33.869Z,90.36
2023-02-03T01:27:33.231Z,90.47
2023-02-03T01:28:33.596Z,90.36
2023-02-03T01:29:32.796Z,90.36
2023-02-03T01:30:34.118Z,90.26
2023-02-03T01:31:34.465Z,89.95
2023-02-03T01:32:33.672Z,89.95
2023-02-03T01:33:33.007Z,90.16
2023-02-03T01:34:34.608Z,89.95
2023-02-03T01:35:33.547Z,90.16
2023-02-03T01:36:33.902Z,89.85
2023-02-03T01:37:33.236Z,89.75
2023-02-03T01:38:33.477Z,89.54
2023-02-03T01:39:33.767Z,89.44
2023-02-03T01:40:33.479Z,89.54
2023-02-03T01:41:33.347Z,89.34
2023-02-03T01:42:34.724Z,89.23
2023-02-03T01:43:33.993Z,89.23
2023-02-03T01:44:33.287Z,89.13
2023-02-03T01:45:32.617Z,89.23
2023-02-03T01:46:32.996Z,89.34
2023-02-03T01:47:34.211Z,89.03
2023-02-03T01:48:33.467Z,88.82
2023-02-03T01:49:32.845Z,88.92
2023-02-03T01:50:34.127Z,89.03
2023-02-03T01:51:33.402Z,89.13
2023-02-03T01:52:32.822Z,89.03
2023-02-03T01:53:34.052Z,88.82
2023-02-03T01:54:33.369Z,88.72
2023-02-03T01:55:33.671Z,88.82
2023-02-03T01:56:33.987Z,88.62
2023-02-03T01:57:32.336Z,88.72
2023-02-03T01:58:33.642Z,88.62
2023-02-03T01:59:33.914Z,88.62
2023-02-03T02:00:32.231Z,88.31
2023-02-03T02:01:32.592Z,88.41
2023-02-03T02:02:33.894Z,88.31
2023-02-03T02:03:32.201Z,88.51
2023-02-03T02:04:33.529Z,88.41
2023-02-03T02:05:33.819Z,88.41
2023-02-03T02:06:33.081Z,88.31
2023-02-03T02:07:32.482Z,88.20
2023-02-03T02:08:33.741Z,88.10
2023-02-03T02:09:33.048Z,88.20
2023-02-03T02:10:33.452Z,88.20
2023-02-03T02:11:33.652Z,88.20
2023-02-03T02:12:32.948Z,88.10
2023-02-03T02:13:33.261Z,88.20
2023-02-03T02:14:33.581Z,88.10
2023-02-03T02:15:32.031Z,88.20
2023-02-03T02:16:33.221Z,88.31
2023-02-03T02:17:33.494Z,88.31
2023-02-03T02:18:32.862Z,88.20
2023-02-03T02:19:33.097Z,88.20
2023-02-03T02:20:33.443Z,88.31
2023-02-03T02:21:33.826Z,88.31
2023-02-03T02:22:33.031Z,88.31
2023-02-03T02:23:32.410Z,88.31
2023-02-03T02:24:32.740Z,88.10
2023-02-03T02:25:32.061Z,88.20
2023-02-03T02:26:32.340Z,88.20
2023-02-03T02:27:33.741Z,88.20
2023-02-03T02:28:32.902Z,88.41
2023-02-03T02:29:33.202Z,88.31
2023-02-03T02:30:33.563Z,88.51
2023-02-03T02:31:31.938Z,88.72
2023-02-03T02:32:32.152Z,88.51
2023-02-03T02:33:33.435Z,88.20
2023-02-03T02:34:31.732Z,88.31
2023-02-03T02:35:32.062Z,88.20
2023-02-03T02:36:33.323Z,88.00
2023-02-03T02:37:32.603Z,88.06
2023-02-03T02:38:32.937Z,88.20
2023-02-03T02:39:32.487Z,88.00
2023-02-03T02:40:32.541Z,88.20
2023-02-03T02:41:32.901Z,87.96
2023-02-03T02:42:33.221Z,88.06
2023-02-03T02:43:32.517Z,88.37
2023-02-03T02:44:31.889Z,88.41
2023-02-03T02:45:33.198Z,88.51
2023-02-03T02:46:31.517Z,88.41
2023-02-03T02:47:31.826Z,88.31
2023-02-03T02:48:32.172Z,88.31
2023-02-03T02:49:32.422Z,88.20
2023-02-03T02:50:31.783Z,88.10
2023-02-03T02:51:33.119Z,87.90
2023-02-03T02:52:32.375Z,88.00
2023-02-03T02:53:32.724Z,88.00
2023-02-03T02:54:33.060Z,88.31
2023-02-03T02:55:31.382Z,88.10
2023-02-03T02:56:32.632Z,88.10
2023-02-03T02:57:32.024Z,88.10
2023-02-03T02:58:33.265Z,88.00
2023-02-03T02:59:31.583Z,88.00
2023-02-03T03:00:31.921Z,87.69
2023-02-03T03:01:33.297Z,87.59
2023-02-03T03:02:32.434Z,87.38
2023-02-03T03:03:32.831Z,87.18
2023-02-03T03:04:33.119Z,87.18
2023-02-03T03:05:32.404Z,87.18
2023-02-03T03:06:31.767Z,86.97
2023-02-03T03:07:32.073Z,87.07
2023-02-03T03:08:32.306Z,86.15
2023-02-03T03:09:32.664Z,86.72
2023-02-03T03:10:31.994Z,86.83
2023-02-03T03:11:31.284Z,87.18
2023-02-03T03:12:31.621Z,86.77
2023-02-03T03:13:32.882Z,86.97
2023-02-03T03:14:31.193Z,86.97
2023-02-03T03:15:33.375Z,87.18
2023-02-03T03:16:33.252Z,86.87
2023-02-03T03:17:32.105Z,86.56
2023-02-03T03:18:32.447Z,86.25
2023-02-03T03:19:32.687Z,86.15
2023-02-03T03:20:32.375Z,86.05
2023-02-03T03:21:31.761Z,85.70
2023-02-03T03:22:32.979Z,86.00
2023-02-03T03:23:32.195Z,86.11
2023-02-03T03:24:32.514Z,86.05
2023-02-03T03:25:32.801Z,86.05
2023-02-03T03:26:31.120Z,86.25
2023-02-03T03:27:31.436Z,86.15
2023-02-03T03:28:31.691Z,86.15
2023-02-03T03:29:31.011Z,86.15
2023-02-03T03:30:31.382Z,85.94
2023-02-03T03:31:32.664Z,85.74
2023-02-03T03:32:30.814Z,85.63
2023-02-03T03:33:31.180Z,85.63
2023-02-03T03:34:32.401Z,85.63
2023-02-03T03:35:32.679Z,85.33
2023-02-03T03:36:30.971Z,85.18
2023-02-03T03:37:31.282Z,85.28
2023-02-03T03:38:31.611Z,85.08
2023-02-03T03:39:31.837Z,85.39
2023-02-03T03:40:32.110Z,85.18
2023-02-03T03:41:32.393Z,84.98
2023-02-03T03:42:32.705Z,85.18
2023-02-03T03:43:31.948Z,85.49
2023-02-03T03:44:32.607Z,85.60
2023-02-03T03:45:31.561Z,85.49
2023-02-03T03:46:31.870Z,85.49
2023-02-03T03:47:31.135Z,85.84
2023-02-03T03:48:32.365Z,85.94
2023-02-03T03:49:31.621Z,85.94
2023-02-03T03:50:32.011Z,85.70
2023-02-03T03:51:31.319Z,85.49
2023-02-03T03:52:31.611Z,85.80
2023-02-03T03:53:31.868Z,85.90
2023-02-03T03:54:31.195Z,85.60
2023-02-03T03:55:32.505Z,85.70
2023-02-03T03:56:31.735Z,85.90
2023-02-03T03:57:32.056Z,85.84
2023-02-03T03:58:32.399Z,85.80
2023-02-03T03:59:31.645Z,85.94
2023-02-03T04:00:30.978Z,86.00
2023-02-03T04:01:32.418Z,86.05
2023-02-03T04:02:30.688Z,85.80
2023-02-03T04:03:31.825Z,86.11
2023-02-03T04:04:32.112Z,86.35
2023-02-03T04:05:30.413Z,86.00
2023-02-03T04:06:31.652Z,85.90
2023-02-03T04:07:32.086Z,86.11
2023-02-03T04:08:32.280Z,86.21
2023-02-03T04:09:30.631Z,86.21
2023-02-03T04:10:31.883Z,86.21
2023-02-03T04:11:31.227Z,86.32
2023-02-03T04:12:30.487Z,86.46
2023-02-03T04:13:31.825Z,86.46
2023-02-03T04:14:32.065Z,86.46
2023-02-03T04:15:30.377Z,86.46
2023-02-03T04:16:30.705Z,86.35
2023-02-03T04:17:31.922Z,86.25
2023-02-03T04:18:30.285Z,86.32
2023-02-03T04:19:31.482Z,86.21
2023-02-03T04:20:31.858Z,86.42
2023-02-03T04:21:32.151Z,86.56
2023-02-03T04:22:30.461Z,86.87
2023-02-03T04:23:31.684Z,86.77
2023-02-03T04:24:31.983Z,86.66
2023-02-03T04:25:30.322Z,86.87
2023-02-03T04:26:30.606Z,86.77
2023-02-03T04:27:30.941Z,86.87
2023-02-03T04:28:30.215Z,86.77
2023-02-03T04:29:30.527Z,86.77
2023-02-03T04:30:31.836Z,86.56
2023-02-03T04:31:30.226Z,86.46
2023-02-03T04:32:30.429Z,86.66
2023-02-03T04:33:30.776Z,86.66
2023-02-03T04:34:30.053Z,86.46
2023-02-03T04:35:30.369Z,86.46
2023-02-03T04:36:31.797Z,86.25
2023-02-03T04:37:31.090Z,86.11
2023-02-03T04:38:30.260Z,86.25
2023-02-03T04:39:31.427Z,86.25
2023-02-03T04:40:34.043Z,86.35
2023-02-03T04:41:30.140Z,86.25
2023-02-03T04:42:30.446Z,86.25
2023-02-03T04:43:30.702Z,86.25
2023-02-03T04:44:30.023Z,86.21
2023-02-03T04:45:30.030Z,86.35
2023-02-03T04:46:30.271Z,86.25
2023-02-03T04:47:30.586Z,86.15
2023-02-03T04:48:31.853Z,85.94
2023-02-03T04:49:30.119Z,86.05
2023-02-03T04:50:30.378Z,86.35
2023-02-03T04:51:31.534Z,86.15
2023-02-03T04:52:29.905Z,85.94
2023-02-03T04:53:30.273Z,85.74
2023-02-03T04:54:30.536Z,85.94
2023-02-03T04:55:29.745Z,85.84
2023-02-03T04:56:30.987Z,85.94
2023-02-03T04:57:30.332Z,85.94
2023-02-03T04:58:30.667Z,85.63
2023-02-03T04:59:29.856Z,85.33
2023-02-03T05:00:30.467Z,85.28
2023-02-03T05:01:30.452Z,85.63
2023-02-03T05:02:29.713Z,85.74
2023-02-03T05:03:30.089Z,85.63
2023-02-03T05:04:30.396Z,85.63
2023-02-03T05:05:29.608Z,85.02
2023-02-03T05:06:29.921Z,85.02
2023-02-03T05:07:30.206Z,85.12
2023-02-03T05:08:30.596Z,85.02
2023-02-03T05:09:29.828Z,84.71
2023-02-03T05:10:30.232Z,84.81
2023-02-03T05:11:30.827Z,84.71
2023-02-03T05:12:29.754Z,84.71
2023-02-03T05:13:30.133Z,84.61
2023-02-03T05:14:30.347Z,84.61
2023-02-03T05:15:29.628Z,84.61
2023-02-03T05:16:30.006Z,84.71
2023-02-03T05:17:30.258Z,84.71
2023-02-03T05:18:29.541Z,84.50
2023-02-03T05:19:29.887Z,84.50
2023-02-03T05:20:30.178Z,84.36
2023-02-03T05:21:29.417Z,84.26
2023-02-03T05:22:29.760Z,84.50
2023-02-03T05:23:30.019Z,84.16
2023-02-03T05:24:30.321Z,84.36
2023-02-03T05:25:29.558Z,84.40
2023-02-03T05:26:29.857Z,84.16
2023-02-03T05:27:30.182Z,84.16
2023-02-03T05:28:29.427Z,84.36
2023-02-03T05:29:29.749Z,84.40
2023-02-03T05:30:30.374Z,84.47
2023-02-03T05:31:29.335Z,84.40
2023-02-03T05:32:29.617Z,84.50
2023-02-03T05:33:29.911Z,84.50
2023-02-03T05:34:30.202Z,84.30
2023-02-03T05:35:29.446Z,84.05
2023-02-03T05:36:29.759Z,84.16
2023-02-03T05:37:30.078Z,84.16
2023-02-03T05:38:29.334Z,84.16
2023-02-03T05:39:29.632Z,84.26
2023-02-03T05:40:30.239Z,84.26
2023-02-03T05:41:29.178Z,84.26
2023-02-03T05:42:29.456Z,84.36
2023-02-03T05:43:29.971Z,84.26
2023-02-03T05:44:30.078Z,84.56
2023-02-03T05:45:29.337Z,84.36
2023-02-03T05:46:29.609Z,84.47
2023-02-03T05:47:29.907Z,84.56
2023-02-03T05:48:29.166Z,84.47
2023-02-03T05:49:29.506Z,84.88
2023-02-03T05:50:29.858Z,84.98
2023-02-03T05:51:29.017Z,84.98
2023-02-03T05:52:29.320Z,84.88
2023-02-03T05:53:30.581Z,84.77
2023-02-03T05:54:29.916Z,84.67
2023-02-03T05:55:29.197Z,84.88
2023-02-03T05:56:29.477Z,84.98
2023-02-03T05:57:31.979Z,85.08
2023-02-03T05:58:29.018Z,84.98
2023-02-03T05:59:29.302Z,85.28
2023-02-03T06:00:29.894Z,85.28
2023-02-03T06:01:28.857Z,85.08
2023-02-03T06:02:30.142Z,84.98
2023-02-03T06:03:29.485Z,85.08
2023-02-03T06:04:29.810Z,85.08
2023-02-03T06:05:29.013Z,84.88
2023-02-03T06:06:29.364Z,84.98
2023-02-03T06:07:29.628Z,84.88
2023-02-03T06:08:28.864Z,85.08
2023-02-03T06:09:29.211Z,85.18
2023-02-03T06:10:31.604Z,85.18
2023-02-03T06:11:28.765Z,85.18
2023-02-03T06:12:29.486Z,85.08
2023-02-03T06:13:30.296Z,85.08
2023-02-03T06:14:29.956Z,84.88
2023-02-03T06:15:28.913Z,84.88
2023-02-03T06:16:29.305Z,84.88
2023-02-03T06:17:29.560Z,84.56
2023-02-03T06:18:28.755Z,84.77
2023-02-03T06:19:29.088Z,84.56
2023-02-03T06:20:29.731Z,84.77
2023-02-03T06:21:28.639Z,84.56
2023-02-03T06:22:28.999Z,84.47
2023-02-03T06:23:29.327Z,84.47
2023-02-03T06:24:28.540Z,84.16
2023-02-03T06:25:29.819Z,84.05
2023-02-03T06:26:30.158Z,83.95
2023-02-03T06:27:29.481Z,84.05
2023-02-03T06:28:28.753Z,84.05
2023-02-03T06:29:29.101Z,84.05
2023-02-03T06:30:30.613Z,84.05
2023-02-03T06:31:28.786Z,83.95
2023-02-03T06:32:28.947Z,83.85
2023-02-03T06:33:29.215Z,83.64
2023-02-03T06:34:28.511Z,83.75
2023-02-03T06:35:29.071Z,83.75
2023-02-03T06:36:29.093Z,83.85
2023-02-03T06:37:29.409Z,83.85
2023-02-03T06:38:28.661Z,83.95
2023-02-03T06:39:28.952Z,83.95
2023-02-03T06:40:29.789Z,83.85
2023-02-03T06:41:28.532Z,83.75
2023-02-03T06:42:29.880Z,83.75
2023-02-03T06:43:29.161Z,84.16
2023-02-03T06:44:28.493Z,83.85
2023-02-03T06:45:28.795Z,83.85
2023-02-03T06:46:29.173Z,83.54
2023-02-03T06:47:28.432Z,83.64
2023-02-03T06:48:28.721Z,83.64
2023-02-03T06:49:29.017Z,83.54
2023-02-03T06:50:29.741Z,83.64
2023-02-03T06:51:28.718Z,83.33
2023-02-03T06:52:28.951Z,83.33
2023-02-03T06:53:28.179Z,83.13
2023-02-03T06:54:28.519Z,83.54
2023-02-03T06:55:28.820Z,83.54
2023-02-03T06:56:29.147Z,83.64
2023-02-03T06:57:28.415Z,83.75
2023-02-03T06:58:28.712Z,83.95
2023-02-03T06:59:29.023Z,83.64
2023-02-03T07:00:29.566Z,83.44
2023-02-03T07:01:28.657Z,83.33
2023-02-03T07:02:28.958Z,83.23
2023-02-03T07:03:28.197Z,83.03
2023-02-03T07:04:29.482Z,83.03
2023-02-03T07:05:28.830Z,83.44
2023-02-03T07:06:29.041Z,83.23
2023-02-03T07:07:28.577Z,83.23
2023-02-03T07:08:29.661Z,83.13
2023-02-03T07:09:28.001Z,82.92
2023-02-03T07:10:29.646Z,82.92
2023-02-03T07:11:29.580Z,82.92
2023-02-03T07:12:27.914Z,82.82
2023-02-03T07:13:28.274Z,82.82
2023-02-03T07:14:28.593Z,82.92
2023-02-03T07:15:27.853Z,84.32
2023-02-03T07:16:28.196Z,84.53
2023-02-03T07:17:28.547Z,83.40
2023-02-03T07:18:46.837Z,83.67
2023-02-03T07:19:29.119Z,82.23
2023-02-03T07:20:28.774Z,81.71
2023-02-03T07:21:28.714Z,82.03
2023-02-03T07:22:27.982Z,81.41
2023-02-03T07:23:28.302Z,81.62
2023-02-03T07:24:28.731Z,82.03
2023-02-03T07:25:27.871Z,81.41
2023-02-03T07:26:28.166Z,81.51
2023-02-03T07:27:28.482Z,81.51
2023-02-03T07:28:27.748Z,81.71
2023-02-03T07:29:28.085Z,81.20
2023-02-03T07:30:28.831Z,81.41
2023-02-03T07:31:28.696Z,81.30
2023-02-03T07:32:27.902Z,81.00
2023-02-03T07:33:29.163Z,80.90
2023-02-03T07:34:29.453Z,81.20
2023-02-03T07:35:28.698Z,81.30
2023-02-03T07:36:28.750Z,81.30
2023-02-03T07:37:28.423Z,81.20
2023-02-03T07:38:27.701Z,81.10
2023-02-03T07:39:27.980Z,80.90
2023-02-03T07:40:28.550Z,81.10
2023-02-03T07:41:27.597Z,81.30
2023-02-03T07:42:27.912Z,80.90
2023-02-03T07:43:29.171Z,81.10
2023-02-03T07:44:27.485Z,81.10
2023-02-03T07:45:28.754Z,81.00
2023-02-03T07:46:29.207Z,81.20
2023-02-03T07:47:28.483Z,81.10
2023-02-03T07:48:27.710Z,81.10
2023-02-03T07:49:28.076Z,81.62
2023-02-03T07:50:28.686Z,81.16
2023-02-03T07:51:27.622Z,80.96
2023-02-03T07:52:27.915Z,81.00
2023-02-03T07:53:28.316Z,81.41
2023-02-03T07:54:27.521Z,81.71
2023-02-03T07:55:27.812Z,81.86
2023-02-03T07:56:29.142Z,82.17
2023-02-03T07:57:27.495Z,82.27
2023-02-03T07:58:28.722Z,82.06
2023-02-03T07:59:28.076Z,82.06
2023-02-03T08:00:28.581Z,81.96
2023-02-03T08:01:27.670Z,81.96
2023-02-03T08:02:27.892Z,82.06
2023-02-03T08:03:29.273Z,82.17
2023-02-03T08:04:27.632Z,82.17
2023-02-03T08:05:27.921Z,81.86
2023-02-03T08:06:28.051Z,81.96
2023-02-03T08:07:27.325Z,82.13
2023-02-03T08:08:28.574Z,82.27
2023-02-03T08:09:29.982Z,82.17
2023-02-03T08:10:28.458Z,82.06
2023-02-03T08:11:27.580Z,82.27
2023-02-03T08:12:27.782Z,82.06
2023-02-03T08:13:28.089Z,81.82
2023-02-03T08:14:27.450Z,81.96
2023-02-03T08:15:27.645Z,82.17
2023-02-03T08:16:28.392Z,82.27
2023-02-03T08:17:27.383Z,82.27
2023-02-03T08:18:29.810Z,82.23
2023-02-03T08:19:27.865Z,82.23
2023-02-03T08:20:28.465Z,82.27
2023-02-03T08:21:28.404Z,82.68
2023-02-03T08:22:27.853Z,82.78
2023-02-03T08:23:29.039Z,82.68
2023-02-03T08:24:27.326Z,82.68
2023-02-03T08:25:28.581Z,82.57
2023-02-03T08:26:28.858Z,82.57
2023-02-03T08:27:27.168Z,82.68
2023-02-03T08:28:27.495Z,82.57
2023-02-03T08:29:27.756Z,82.47
2023-02-03T08:30:27.401Z,82.95
2023-02-03T08:31:27.469Z,82.78
2023-02-03T08:32:27.632Z,82.78
2023-02-03T08:33:26.972Z,82.78
2023-02-03T08:34:27.174Z,83.05
2023-02-03T08:35:28.406Z,83.19
2023-02-03T08:36:27.746Z,83.19
2023-02-03T08:37:27.006Z,83.09
2023-02-03T08:38:28.256Z,83.29
2023-02-03T08:39:27.627Z,83.29
2023-02-03T08:40:27.190Z,83.19
2023-02-03T08:41:27.150Z,83.09
2023-02-03T08:42:28.427Z,83.09
2023-02-03T08:43:26.722Z,83.19
2023-02-03T08:44:27.021Z,83.70
2023-02-03T08:45:28.385Z,83.40
2023-02-03T08:46:27.616Z,83.50
2023-02-03T08:47:27.847Z,83.29
2023-02-03T08:48:27.154Z,83.50
2023-02-03T08:49:27.450Z,83.19
2023-02-03T08:50:27.091Z,83.15
2023-02-03T08:51:27.100Z,83.29
2023-02-03T08:52:27.316Z,83.36
2023-02-03T08:53:28.662Z,83.61
2023-02-03T08:54:26.896Z,83.26
2023-02-03T08:55:28.119Z,83.05
2023-02-03T08:56:28.052Z,83.46
2023-02-03T08:57:27.690Z,83.36
2023-02-03T08:58:27.037Z,83.15
2023-02-03T08:59:28.251Z,83.46
2023-02-03T09:00:27.015Z,83.26
2023-02-03T09:01:27.905Z,83.67
2023-02-03T09:02:27.249Z,83.56
2023-02-03T09:03:27.388Z,83.46
2023-02-03T09:04:27.677Z,83.56
2023-02-03T09:05:27.946Z,83.46
2023-02-03T09:06:27.336Z,83.77
2023-02-03T09:07:27.664Z,83.77
2023-02-03T09:08:26.905Z,83.56
2023-02-03T09:09:27.151Z,83.87
2023-02-03T09:10:26.881Z,83.56
2023-02-03T09:11:26.694Z,83.77
2023-02-03T09:12:26.992Z,83.36
2023-02-03T09:13:27.315Z,83.36
2023-02-03T09:14:26.537Z,83.98
2023-02-03T09:15:26.789Z,84.18
2023-02-03T09:16:27.125Z,83.46
2023-02-03T09:17:26.352Z,83.87
2023-02-03T09:18:26.646Z,83.87
2023-02-03T09:19:26.968Z,83.87
2023-02-03T09:20:27.666Z,83.87
2023-02-03T09:21:34.023Z,83.46
2023-02-03T09:22:27.883Z,83.67
2023-02-03T09:23:27.246Z,83.67
2023-02-03T09:24:26.497Z,83.98
2023-02-03T09:25:26.757Z,83.87
2023-02-03T09:26:27.057Z,83.98
2023-02-03T09:27:26.348Z,83.87
2023-02-03T09:28:26.696Z,84.39
2023-02-03T09:29:26.929Z,84.80
2023-02-03T09:30:26.963Z,84.69
2023-02-03T09:31:26.562Z,84.80
2023-02-03T09:32:26.770Z,85.00
2023-02-03T09:33:26.050Z,85.11
2023-02-03T09:34:26.344Z,85.46
2023-02-03T09:35:27.566Z,85.55
2023-02-03T09:36:27.829Z,86.27
2023-02-03T09:37:28.147Z,85.55
2023-02-03T09:38:32.519Z,85.66
2023-02-03T09:39:26.749Z,85.86
2023-02-03T09:40:27.309Z,85.76
2023-02-03T09:41:26.133Z,85.76
2023-02-03T09:42:27.382Z,85.86
2023-02-03T09:43:26.706Z,86.17
2023-02-03T09:44:26.885Z,86.27
2023-02-03T09:45:27.041Z,87.10
2023-02-03T09:46:27.520Z,87.82
2023-02-03T09:47:27.775Z,88.64
2023-02-03T09:48:27.055Z,88.84
2023-02-03T09:49:28.223Z,89.19
2023-02-03T09:50:27.259Z,89.19
2023-02-03T09:51:26.916Z,88.98
2023-02-03T09:52:27.218Z,89.09
2023-02-03T09:53:27.574Z,88.89
2023-02-03T09:54:26.807Z,88.89
2023-02-03T09:55:27.056Z,89.40
2023-02-03T09:56:26.505Z,89.09
2023-02-03T09:57:27.706Z,88.68
2023-02-03T09:58:26.902Z,88.47
2023-02-03T09:59:26.286Z,88.37
2023-02-03T10:00:26.932Z,88.64
2023-02-03T10:01:25.822Z,88.74
2023-02-03T10:02:26.250Z,88.23
2023-02-03T10:03:27.358Z,88.12
2023-02-03T10:04:26.581Z,88.12
2023-02-03T10:05:25.948Z,88.12
2023-02-03T10:06:27.130Z,87.82
2023-02-03T10:07:26.623Z,88.12
2023-02-03T10:08:26.720Z,88.02
2023-02-03T10:09:26.966Z,87.92
2023-02-03T10:10:26.727Z,88.33
2023-02-03T10:11:25.541Z,88.12
2023-02-03T10:12:25.826Z,87.92
2023-02-03T10:13:26.106Z,88.02
2023-02-03T10:14:27.367Z,87.71
2023-02-03T10:15:26.545Z,88.02
2023-02-03T10:16:26.896Z,88.02
2023-02-03T10:17:27.125Z,88.23
2023-02-03T10:18:26.530Z,87.71
2023-02-03T10:19:26.741Z,88.02
2023-02-03T10:20:26.441Z,88.12
2023-02-03T10:21:26.303Z,88.02
2023-02-03T10:22:25.560Z,87.92
2023-02-03T10:23:25.867Z,87.92
2023-02-03T10:24:27.283Z,88.02
2023-02-03T10:25:26.410Z,88.12
2023-02-03T10:26:25.766Z,88.23
2023-02-03T10:27:31.109Z,88.43
2023-02-03T10:28:26.281Z,88.43
2023-02-03T10:29:26.596Z,88.43
2023-02-03T10:30:27.496Z,88.64
2023-02-03T10:31:26.327Z,88.53
2023-02-03T10:32:26.464Z,88.64
2023-02-03T10:33:26.788Z,88.53
2023-02-03T10:34:27.122Z,88.74
2023-02-03T10:35:26.332Z,88.74
2023-02-03T10:36:26.650Z,88.74
2023-02-03T10:37:26.778Z,88.64
2023-02-03T10:38:25.206Z,88.95
2023-02-03T10:39:25.491Z,88.64
2023-02-03T10:40:26.086Z,88.74
2023-02-03T10:41:27.045Z,88.80
2023-02-03T10:42:26.279Z,88.80
2023-02-03T10:43:25.624Z,88.80
2023-02-03T10:44:26.822Z,88.80
2023-02-03T10:45:26.075Z,88.80
2023-02-03T10:46:25.444Z,88.90
2023-02-03T10:47:25.844Z,89.04
2023-02-03T10:48:26.045Z,89.01
2023-02-03T10:49:25.276Z,89.11
2023-02-03T10:50:25.865Z,89.36
2023-02-03T10:51:26.803Z,89.31
2023-02-03T10:52:25.069Z,89.46
2023-02-03T10:53:25.521Z,89.36
2023-02-03T10:54:26.616Z,89.66
2023-02-03T10:55:25.867Z,89.66
2023-02-03T10:56:25.211Z,89.87
2023-02-03T10:57:26.459Z,90.08
2023-02-03T10:58:26.841Z,89.87
2023-02-03T10:59:26.080Z,90.08
2023-02-03T11:00:26.716Z,90.08
2023-02-03T11:01:26.732Z,89.93
2023-02-03T11:02:26.085Z,90.28
2023-02-03T11:03:26.278Z,90.08
2023-02-03T11:04:26.918Z,90.03
2023-02-03T11:05:25.814Z,90.03
2023-02-03T11:06:26.114Z,90.03
2023-02-03T11:07:26.400Z,90.03
2023-02-03T11:08:25.764Z,89.83
2023-02-03T11:09:24.971Z,90.34
2023-02-03T11:10:26.867Z,90.24
2023-02-03T11:11:25.578Z,90.03
2023-02-03T11:12:24.823Z,90.03
2023-02-03T11:13:25.112Z,90.14
2023-02-03T11:14:26.315Z,89.93
2023-02-03T11:15:27.098Z,90.24
2023-02-03T11:16:24.919Z,90.14
2023-02-03T11:17:26.091Z,90.24
2023-02-03T11:18:26.474Z,90.24
2023-02-03T11:19:24.774Z,90.14
2023-02-03T11:20:25.044Z,89.83
2023-02-03T11:21:25.440Z,89.83
2023-02-03T11:22:24.690Z,89.93
2023-02-03T11:23:24.880Z,89.99
2023-02-03T11:24:25.188Z,89.72
2023-02-03T11:25:25.466Z,89.72
2023-02-03T11:26:24.687Z,89.93
2023-02-03T11:27:25.034Z,89.69
2023-02-03T11:28:25.315Z,89.78
2023-02-03T11:29:24.536Z,90.09
2023-02-03T11:30:24.864Z,89.78
2023-02-03T11:31:25.251Z,90.09
2023-02-03T11:32:25.491Z,89.89
2023-02-03T11:33:24.722Z,89.99
2023-02-03T11:34:24.960Z,89.89
2023-02-03T11:35:25.290Z,89.89
2023-02-03T11:36:24.500Z,89.89
2023-02-03T11:37:24.804Z,89.78
2023-02-03T11:38:25.164Z,89.89
2023-02-03T11:39:25.333Z,89.89
2023-02-03T11:40:24.864Z,89.89
2023-02-03T11:41:24.830Z,90.20
2023-02-03T11:42:25.169Z,90.40
2023-02-03T11:43:24.402Z,90.30
2023-02-03T11:44:25.019Z,90.40
2023-02-03T11:45:25.028Z,90.30
2023-02-03T11:46:24.286Z,90.20
2023-02-03T11:47:24.561Z,90.40
2023-02-03T11:48:24.896Z,90.61
2023-02-03T11:49:25.190Z,90.50
2023-02-03T11:50:24.415Z,90.71
2023-02-03T11:51:24.727Z,90.61
2023-02-03T11:52:25.024Z,90.91
2023-02-03T11:53:24.419Z,90.91
2023-02-03T11:54:24.591Z,90.91
2023-02-03T11:55:24.920Z,90.95
2023-02-03T11:56:25.128Z,91.16
2023-02-03T11:57:25.420Z,91.53
2023-02-03T11:58:25.690Z,91.22
2023-02-03T11:59:25.075Z,91.37
2023-02-03T12:00:24.366Z,91.42
2023-02-03T12:01:24.706Z,91.57
2023-02-03T12:02:25.010Z,91.74
2023-02-03T12:03:24.253Z,91.67
2023-02-03T12:04:24.614Z,91.78
2023-02-03T12:05:25.331Z,91.99
2023-02-03T12:06:25.141Z,91.78
2023-02-03T12:07:24.376Z,91.78
2023-02-03T12:08:24.680Z,92.08
2023-02-03T12:09:24.957Z,92.08
2023-02-03T12:10:24.226Z,92.40
2023-02-03T12:11:24.602Z,92.19
2023-02-03T12:12:24.844Z,92.19
2023-02-03T12:13:24.080Z,92.19
2023-02-03T12:14:24.392Z,92.29
2023-02-03T12:15:24.674Z,92.19
2023-02-03T12:16:24.030Z,92.19
2023-02-03T12:17:24.324Z,92.29
2023-02-03T12:18:24.525Z,92.08
2023-02-03T12:19:24.824Z,92.19
2023-02-03T12:20:25.106Z,92.29
2023-02-03T12:21:24.336Z,92.40
2023-02-03T12:22:24.696Z,92.40
2023-02-03T12:23:24.844Z,92.60
2023-02-03T12:24:25.186Z,92.60
2023-02-03T12:25:24.539Z,92.60
2023-02-03T12:26:23.775Z,92.91
2023-02-03T12:27:24.024Z,93.01
2023-02-03T12:28:33.419Z,93.01
2023-02-03T12:29:25.567Z,93.12
2023-02-03T12:30:24.872Z,93.63
2023-02-03T12:31:24.230Z,93.52
2023-02-03T12:32:24.415Z,93.52
2023-02-03T12:33:23.689Z,93.52
2023-02-03T12:34:24.338Z,93.52
2023-02-03T12:35:24.214Z,93.52
2023-02-03T12:36:24.746Z,93.63
2023-02-03T12:37:23.751Z,93.63
2023-02-03T12:38:24.015Z,93.63
2023-02-03T12:39:24.300Z,93.63
2023-02-03T12:40:25.759Z,93.63
2023-02-03T12:41:23.835Z,93.52
2023-02-03T12:42:24.135Z,93.73
2023-02-03T12:43:24.444Z,93.73
2023-02-03T12:44:23.664Z,93.63
2023-02-03T12:45:23.961Z,93.52
2023-02-03T12:46:24.854Z,93.52
2023-02-03T12:47:23.510Z,93.52
2023-02-03T12:48:23.807Z,93.42
2023-02-03T12:49:24.084Z,93.42
2023-02-03T12:50:24.372Z,93.42
2023-02-03T12:51:23.617Z,93.42
2023-02-03T12:52:24.017Z,93.42